createdAt,value
2023-12-28T00:02:20.396Z,95968.88
2023-12-28T00:04:51.474Z,95959.91
2023-12-28T00:07:20.788Z,95959.91
2023-12-28T00:09:49.924Z,95959.63
2023-12-28T00:12:19.160Z,95958.16
2023-12-28T00:14:48.489Z,95956.06
2023-12-28T00:17:18.228Z,95957.03
2023-12-28T00:19:48.940Z,95955.06
2023-12-28T00:22:20.215Z,95954.44
2023-12-28T00:24:50.856Z,95953.78
2023-12-28T00:27:20.400Z,95965.88
2023-12-28T00:29:49.582Z,95968.81
2023-12-28T00:32:19.688Z,95974.88
2023-12-28T00:34:49.238Z,95976.34
2023-12-28T00:37:20.344Z,95972.75
2023-12-28T00:39:51.820Z,95977.47
2023-12-28T00:42:21.910Z,95982.25
2023-12-28T00:44:51.783Z,95977.97
2023-12-28T00:47:22.800Z,95975.53
2023-12-28T00:49:53.685Z,95983.56
2023-12-28T00:52:24.569Z,95986.50
2023-12-28T00:54:54.368Z,95975.22
2023-12-28T00:57:24.320Z,95988.31
2023-12-28T00:59:53.894Z,95988.78
2023-12-28T01:02:24.080Z,95995.31
2023-12-28T01:04:54.992Z,96000.72
2023-12-28T01:07:26.128Z,96005.13
2023-12-28T01:09:56.180Z,96000.06
2023-12-28T01:12:27.358Z,95989.28
2023-12-28T01:14:56.625Z,95992.06
2023-12-28T01:17:26.350Z,95993.88
2023-12-28T01:19:56.396Z,96002.34
2023-12-28T01:22:27.392Z,96003.81
2023-12-28T01:24:57.411Z,95999.56
2023-12-28T01:27:27.938Z,95990.25
2023-12-28T01:29:59.575Z,95996.28
2023-12-28T01:32:29.124Z,95997.09
2023-12-28T01:34:58.958Z,95994.50
2023-12-28T01:37:32.978Z,95996.28
2023-12-28T01:40:03.197Z,95995.56
2023-12-28T01:42:36.130Z,95985.31
2023-12-28T01:45:06.055Z,95993.53
2023-12-28T01:47:35.600Z,95994.28
2023-12-28T01:50:06.573Z,95998.84
2023-12-28T01:52:38.149Z,96003.75
2023-12-28T01:55:12.927Z,95996.06
2023-12-28T01:57:42.682Z,96000.50
2023-12-28T02:00:13.849Z,95993.47
2023-12-28T02:02:47.689Z,95996.88
2023-12-28T02:05:17.578Z,95986.91
2023-12-28T02:07:48.763Z,95991.50
2023-12-28T02:10:19.236Z,95993.59
2023-12-28T02:12:51.457Z,95987.38
2023-12-28T02:15:20.822Z,95995.09
2023-12-28T02:18:01.935Z,95992.28
2023-12-28T02:20:33.134Z,96005.03
2023-12-28T02:23:05.930Z,95998.81
2023-12-28T02:25:37.222Z,95990.34
2023-12-28T02:28:08.168Z,95991.31
2023-12-28T02:30:37.909Z,95991.28
2023-12-28T02:33:16.976Z,95990.97
2023-12-28T02:35:55.049Z,95993.91
2023-12-28T02:38:27.188Z,95992.13
2023-12-28T02:41:00.530Z,95999.13
2023-12-28T02:43:30.901Z,95990.09
2023-12-28T02:46:00.374Z,95992.72
2023-12-28T02:48:31.748Z,95979.47
2023-12-28T02:51:01.180Z,95985.81
2023-12-28T02:53:33.367Z,95990.00
2023-12-28T02:56:06.345Z,95988.03
2023-12-28T02:58:37.070Z,95984.91
2023-12-28T03:01:07.703Z,95978.41
2023-12-28T03:03:37.810Z,95974.59
2023-12-28T03:06:06.805Z,95982.25
2023-12-28T03:08:36.030Z,95987.31
2023-12-28T03:11:07.006Z,95979.34
2023-12-28T03:13:36.116Z,95973.91
2023-12-28T03:16:05.903Z,95969.34
2023-12-28T03:18:36.802Z,95976.81
2023-12-28T03:21:06.276Z,95970.78
2023-12-28T03:23:37.255Z,95974.44
2023-12-28T03:26:09.370Z,95978.69
2023-12-28T03:28:39.206Z,95976.63
2023-12-28T03:31:09.936Z,95975.50
2023-12-28T03:33:39.620Z,95987.06
2023-12-28T03:36:10.536Z,95982.47
2023-12-28T03:38:41.647Z,95981.16
2023-12-28T03:41:22.482Z,95985.03
2023-12-28T03:43:51.964Z,95989.44
2023-12-28T03:46:22.220Z,95992.19
2023-12-28T03:48:52.945Z,95993.50
2023-12-28T03:51:22.581Z,95987.59
2023-12-28T03:53:52.212Z,95992.91
2023-12-28T03:56:24.335Z,95991.72
2023-12-28T03:58:58.609Z,95992.50
2023-12-28T04:01:28.505Z,95997.41
2023-12-28T04:03:59.138Z,96001.50
2023-12-28T04:06:30.523Z,96000.53
2023-12-28T04:09:01.468Z,96005.38
2023-12-28T04:11:32.492Z,96006.81
2023-12-28T04:14:03.052Z,96012.97
2023-12-28T04:16:32.818Z,96010.81
2023-12-28T04:19:03.789Z,96011.78
2023-12-28T04:21:34.859Z,96010.81
2023-12-28T04:24:07.140Z,96002.09
2023-12-28T04:26:38.869Z,95995.25
2023-12-28T04:29:08.664Z,95998.00
2023-12-28T04:31:43.679Z,95998.00
2023-12-28T04:34:13.368Z,95995.59
2023-12-28T04:36:46.228Z,95991.34
2023-12-28T04:39:16.754Z,95993.66
2023-12-28T04:41:47.807Z,95994.69
2023-12-28T04:44:17.013Z,95996.34
2023-12-28T04:46:47.778Z,95990.44
2023-12-28T04:49:17.164Z,95988.88
2023-12-28T04:51:46.906Z,95979.34
2023-12-28T04:54:16.680Z,95988.88
2023-12-28T04:56:48.137Z,95993.56
2023-12-28T04:59:19.042Z,95996.25
2023-12-28T05:01:48.523Z,95995.28
2023-12-28T05:04:18.461Z,96003.84
2023-12-28T05:06:48.133Z,95995.19
2023-12-28T05:09:17.605Z,95990.81
2023-12-28T05:11:50.149Z,95993.88
2023-12-28T05:14:20.270Z,95998.78
2023-12-28T05:16:50.142Z,95996.97
2023-12-28T05:19:20.092Z,95998.78
2023-12-28T05:21:50.411Z,96004.38
2023-12-28T05:24:19.852Z,96002.00
2023-12-28T05:26:51.621Z,96007.28
2023-12-28T05:29:21.007Z,96006.53
2023-12-28T05:31:51.175Z,96010.25
2023-12-28T05:34:20.811Z,96011.44
2023-12-28T05:36:50.289Z,96012.19
2023-12-28T05:39:20.561Z,96011.44
2023-12-28T05:41:52.248Z,96014.66
2023-12-28T05:44:23.901Z,96018.38
2023-12-28T05:46:53.807Z,96023.75
2023-12-28T05:49:24.790Z,96022.34
2023-12-28T05:51:55.244Z,96023.75
2023-12-28T05:54:24.601Z,96026.59
2023-12-28T05:56:55.427Z,96028.22
2023-12-28T05:59:27.738Z,96032.63
2023-12-28T06:01:56.994Z,96029.63
2023-12-28T06:04:26.740Z,96031.50
2023-12-28T06:06:57.485Z,96025.03
2023-12-28T06:09:29.122Z,96028.28
2023-12-28T06:12:00.277Z,96027.38
2023-12-28T06:14:29.702Z,96037.00
2023-12-28T06:16:59.010Z,96032.75
2023-12-28T06:19:28.921Z,96032.00
2023-12-28T06:22:00.328Z,96026.78
2023-12-28T06:24:30.890Z,96036.53
2023-12-28T06:27:02.213Z,96035.44
2023-12-28T06:29:32.366Z,96039.00
2023-12-28T06:32:02.007Z,96035.00
2023-12-28T06:34:31.417Z,96031.44
2023-12-28T06:37:02.913Z,96035.81
2023-12-28T06:39:33.443Z,96042.16
2023-12-28T06:42:05.532Z,96045.94
2023-12-28T06:44:35.713Z,96047.44
2023-12-28T06:47:07.188Z,96047.69
2023-12-28T06:49:36.755Z,96049.25
2023-12-28T06:52:06.599Z,96058.97
2023-12-28T06:54:36.230Z,96046.47
2023-12-28T06:57:07.905Z,96050.41
2023-12-28T06:59:37.109Z,96051.06
2023-12-28T07:02:07.510Z,96051.97
2023-12-28T07:04:37.350Z,96049.13
2023-12-28T07:07:07.687Z,96056.66
2023-12-28T07:09:37.290Z,96053.59
2023-12-28T07:12:09.794Z,96051.00
2023-12-28T07:14:40.107Z,96050.75
2023-12-28T07:17:09.530Z,96051.78
2023-12-28T07:19:39.131Z,96055.94
2023-12-28T07:22:09.206Z,96059.06
2023-12-28T07:24:39.239Z,96053.78
2023-12-28T07:27:10.148Z,96064.44
2023-12-28T07:29:39.522Z,96057.34
2023-12-28T07:32:11.108Z,96055.31
2023-12-28T07:34:40.702Z,96063.75
2023-12-28T07:37:10.448Z,96069.53
2023-12-28T07:39:40.117Z,96060.59
2023-12-28T07:42:11.126Z,96053.44
2023-12-28T07:44:41.780Z,96061.56
2023-12-28T07:47:11.347Z,96065.28
2023-12-28T07:49:41.901Z,96060.31
2023-12-28T07:52:11.951Z,96062.88
2023-12-28T07:54:41.797Z,96072.50
2023-12-28T07:57:13.552Z,96080.34
2023-12-28T07:59:43.035Z,96079.63
2023-12-28T08:02:12.804Z,96084.16
2023-12-28T08:04:43.313Z,96089.72
2023-12-28T08:07:14.044Z,96082.72
2023-12-28T08:09:43.626Z,96078.78
2023-12-28T08:12:15.314Z,96073.41
2023-12-28T08:14:44.841Z,96077.81
2023-12-28T08:17:18.197Z,96067.16
2023-12-28T08:19:48.507Z,96075.34
2023-12-28T08:22:17.868Z,96068.03
2023-12-28T08:24:47.135Z,96074.84
2023-12-28T08:27:21.471Z,96076.00
2023-12-28T08:29:50.951Z,96082.53
2023-12-28T08:45:36.002Z,96071.09
2023-12-28T08:48:06.325Z,96062.53
2023-12-28T08:50:35.781Z,96062.56
2023-12-28T08:53:05.227Z,96055.16
2023-12-28T08:55:34.892Z,96043.94
2023-12-28T08:58:04.608Z,96045.19
2023-12-28T09:00:35.500Z,96043.28
2023-12-28T09:03:04.984Z,96048.88
2023-12-28T09:05:34.266Z,96039.84
2023-12-28T09:08:03.587Z,96041.25
2023-12-28T09:10:32.744Z,96043.63
2023-12-28T09:13:02.117Z,96037.25
2023-12-28T09:15:31.471Z,96039.25
2023-12-28T09:18:02.634Z,96026.38
2023-12-28T09:20:32.220Z,96019.41
2023-12-28T09:23:01.548Z,96013.22
2023-12-28T09:25:30.819Z,96013.47
2023-12-28T09:28:00.108Z,96016.44
2023-12-28T09:30:31.533Z,95995.16
2023-12-28T09:33:06.663Z,96007.53
2023-12-28T09:35:37.427Z,95991.53
2023-12-28T09:38:06.699Z,95996.78
2023-12-28T09:40:35.959Z,96004.94
2023-12-28T09:43:15.534Z,95999.00
2023-12-28T09:45:49.868Z,95991.59
2023-12-28T09:48:22.241Z,95990.91
2023-12-28T09:50:56.000Z,95985.31
2023-12-28T09:53:24.999Z,95969.81
2023-12-28T09:55:54.827Z,95967.75
2023-12-28T09:58:24.680Z,95967.63
2023-12-28T10:00:53.968Z,95954.53
2023-12-28T10:03:24.734Z,95952.81
2023-12-28T10:05:55.140Z,95944.25
2023-12-28T10:08:25.128Z,95940.31
2023-12-28T10:10:55.693Z,95937.78
2023-12-28T10:13:25.283Z,95920.88
2023-12-28T10:15:54.682Z,95922.94
2023-12-28T10:18:26.169Z,95902.56
2023-12-28T10:20:57.210Z,95895.00
2023-12-28T10:23:27.188Z,95892.41
2023-12-28T10:25:59.147Z,95883.50
2023-12-28T10:28:28.467Z,95872.59
2023-12-28T10:30:58.511Z,95869.00
2023-12-28T10:33:29.876Z,95869.25
2023-12-28T10:36:01.209Z,95864.75
2023-12-28T10:38:37.006Z,95869.91
2023-12-28T10:41:09.532Z,95866.22
2023-12-28T10:43:47.037Z,95863.22
2023-12-28T10:46:27.196Z,95860.47
2023-12-28T10:49:01.998Z,95845.59
2023-12-28T10:51:31.463Z,95841.97
2023-12-28T10:54:12.852Z,95840.38
2023-12-28T10:56:49.023Z,95826.97
2023-12-28T10:59:25.486Z,95825.84
2023-12-28T11:01:59.215Z,95820.09
2023-12-28T11:04:44.027Z,95807.28
2023-12-28T11:07:15.904Z,95813.47
2023-12-28T11:09:46.120Z,95807.88
2023-12-28T11:12:19.853Z,95798.22
2023-12-28T11:14:52.377Z,95799.16
2023-12-28T11:17:23.451Z,95795.91
2023-12-28T11:19:55.726Z,95796.66
2023-12-28T11:22:26.424Z,95787.59
2023-12-28T11:24:55.896Z,95789.81
2023-12-28T11:27:25.357Z,95777.25
2023-12-28T11:29:54.804Z,95776.00
2023-12-28T11:32:24.687Z,95764.97
2023-12-28T11:35:01.730Z,95760.31
2023-12-28T11:37:35.321Z,95768.13
2023-12-28T11:40:14.321Z,95754.94
2023-12-28T11:42:52.988Z,95755.81
2023-12-28T11:45:22.908Z,95752.81
2023-12-28T11:48:02.844Z,95749.53
2023-12-28T11:50:34.566Z,95746.44
2023-12-28T11:53:04.080Z,95739.56
2023-12-28T11:55:33.516Z,95747.19
2023-12-28T11:58:02.896Z,95749.78
2023-12-28T12:00:32.334Z,95740.53
2023-12-28T12:03:02.059Z,95735.09
2023-12-28T12:05:33.062Z,95737.34
2023-12-28T12:08:03.046Z,95736.72
2023-12-28T12:10:33.861Z,95726.16
2023-12-28T12:13:04.186Z,95722.31
2023-12-28T12:15:34.121Z,95728.16
2023-12-28T12:18:04.180Z,95726.00
2023-12-28T12:20:34.968Z,95722.22
2023-12-28T12:23:04.085Z,95715.94
2023-12-28T12:25:33.156Z,95723.03
2023-12-28T12:28:02.118Z,95717.78
2023-12-28T12:30:31.152Z,95714.19
2023-12-28T12:33:00.448Z,95719.69
2023-12-28T12:35:31.029Z,95711.53
2023-12-28T12:38:01.432Z,95713.16
2023-12-28T12:40:30.402Z,95713.97
2023-12-28T12:43:00.206Z,95718.28
2023-12-28T12:45:29.354Z,95709.19
2023-12-28T12:48:01.040Z,95704.47
2023-12-28T12:50:29.973Z,95705.84
2023-12-28T12:52:59.087Z,95709.69
2023-12-28T12:55:29.656Z,95709.69
2023-12-28T12:57:58.780Z,95711.47
2023-12-28T13:00:27.959Z,95706.19
2023-12-28T13:02:57.981Z,95696.13
2023-12-28T13:05:27.758Z,95700.28
2023-12-28T13:07:56.928Z,95706.03
2023-12-28T13:10:25.883Z,95697.25
2023-12-28T13:12:57.672Z,95701.38
2023-12-28T13:15:26.863Z,95707.91
2023-12-28T13:17:56.059Z,95701.53
2023-12-28T13:20:25.461Z,95700.28
2023-12-28T13:22:54.937Z,95701.72
2023-12-28T13:25:24.293Z,95710.56
2023-12-28T13:27:53.610Z,95707.84
2023-12-28T13:30:27.110Z,95713.47
2023-12-28T13:32:56.964Z,95712.47
2023-12-28T13:35:26.831Z,95703.25
2023-12-28T13:37:56.340Z,95716.19
2023-12-28T13:40:25.799Z,95717.59
2023-12-28T13:42:58.036Z,95717.16
2023-12-28T13:45:29.414Z,95715.56
2023-12-28T13:47:58.800Z,95702.91
2023-12-28T13:50:27.981Z,95706.41
2023-12-28T13:52:57.770Z,95707.19
2023-12-28T13:55:27.075Z,95701.19
2023-12-28T13:57:56.275Z,95702.91
2023-12-28T14:00:25.517Z,95706.03
2023-12-28T14:02:56.330Z,95706.88
2023-12-28T14:05:26.741Z,95703.75
2023-12-28T14:07:56.487Z,95700.16
2023-12-28T14:10:25.732Z,95695.06
2023-12-28T14:12:55.041Z,95696.00
2023-12-28T14:15:24.252Z,95694.97
2023-12-28T14:17:53.692Z,95701.06
2023-12-28T14:20:24.476Z,95705.91
2023-12-28T14:22:54.202Z,95706.84
2023-12-28T14:25:24.162Z,95703.41
2023-12-28T14:27:54.491Z,95705.94
2023-12-28T14:30:24.844Z,95703.34
2023-12-28T14:32:54.790Z,95702.81
2023-12-28T14:35:26.622Z,95701.34
2023-12-28T14:37:55.879Z,95702.75
2023-12-28T14:40:24.954Z,95696.53
2023-12-28T14:42:54.353Z,95683.91
2023-12-28T14:45:23.578Z,95676.56
2023-12-28T14:47:55.897Z,95683.72
2023-12-28T14:50:27.535Z,95679.47
2023-12-28T14:52:57.079Z,95684.84
2023-12-28T14:55:26.388Z,95677.78
2023-12-28T14:57:55.815Z,95676.50
2023-12-28T15:00:25.194Z,95676.72
2023-12-28T15:02:54.569Z,95677.41
2023-12-28T15:05:24.239Z,95673.38
2023-12-28T15:07:55.044Z,95668.56
2023-12-28T15:10:25.122Z,95669.44
2023-12-28T15:12:54.951Z,95672.13
2023-12-28T15:15:25.295Z,95672.78
2023-12-28T15:17:55.345Z,95672.22
2023-12-28T15:20:26.161Z,95667.78
2023-12-28T15:22:57.472Z,95673.91
2023-12-28T15:25:26.930Z,95668.06
2023-12-28T15:27:56.631Z,95669.69
2023-12-28T15:30:29.039Z,95671.53
2023-12-28T15:32:58.530Z,95674.41
2023-12-28T15:35:27.968Z,95671.16
2023-12-28T15:37:59.184Z,95671.75
2023-12-28T15:40:28.547Z,95665.03
2023-12-28T15:42:57.916Z,95665.66
2023-12-28T15:45:28.482Z,95660.78
2023-12-28T15:47:58.160Z,95667.47
2023-12-28T15:50:27.606Z,95682.28
2023-12-28T15:52:58.094Z,95675.78
2023-12-28T15:55:28.927Z,95675.16
2023-12-28T15:57:59.317Z,95674.69
2023-12-28T16:00:29.070Z,95669.41
2023-12-28T16:02:58.563Z,95672.88
2023-12-28T16:05:27.855Z,95672.44
2023-12-28T16:07:58.332Z,95663.88
2023-12-28T16:10:29.414Z,95665.06
2023-12-28T16:13:00.593Z,95672.75
2023-12-28T16:15:31.027Z,95675.72
2023-12-28T16:18:00.985Z,95680.19
2023-12-28T16:20:31.055Z,95675.91
2023-12-28T16:23:00.713Z,95674.44
2023-12-28T16:25:31.534Z,95671.56
2023-12-28T16:28:01.650Z,95676.19
2023-12-28T16:30:31.246Z,95672.09
2023-12-28T16:33:00.653Z,95672.06
2023-12-28T16:35:29.989Z,95673.59
2023-12-28T16:37:59.504Z,95678.06
2023-12-28T16:40:29.028Z,95679.81
2023-12-28T16:42:59.901Z,95677.69
2023-12-28T16:45:29.796Z,95681.47
2023-12-28T16:47:59.421Z,95678.22
2023-12-28T16:50:28.854Z,95677.75
2023-12-28T16:52:58.145Z,95677.22
2023-12-28T16:55:28.460Z,95668.72
2023-12-28T16:58:02.020Z,95675.56
2023-12-28T17:00:31.899Z,95666.09
2023-12-28T17:03:03.421Z,95673.34
2023-12-28T17:05:33.192Z,95688.38
2023-12-28T17:08:03.173Z,95685.06
2023-12-28T17:10:33.352Z,95685.31
2023-12-28T17:13:04.859Z,95699.00
2023-12-28T17:15:37.066Z,95697.41
2023-12-28T17:18:08.946Z,95697.19
2023-12-28T17:20:39.008Z,95697.44
2023-12-28T17:23:12.213Z,95703.31
2023-12-28T17:25:48.412Z,95697.31
2023-12-28T17:28:25.846Z,95702.75
2023-12-28T17:30:56.061Z,95699.25
2023-12-28T17:33:25.956Z,95694.63
2023-12-28T17:35:56.957Z,95700.25
2023-12-28T17:38:27.537Z,95693.47
2023-12-28T17:40:57.490Z,95693.13
2023-12-28T17:43:37.642Z,95697.09
2023-12-28T17:46:14.800Z,95696.28
2023-12-28T17:48:50.213Z,95696.47
2023-12-28T17:51:20.976Z,95683.19
2023-12-28T17:53:51.293Z,95678.19
2023-12-28T17:56:20.565Z,95682.31
2023-12-28T17:58:51.432Z,95670.66
2023-12-28T18:01:20.861Z,95679.78
2023-12-28T18:03:50.109Z,95677.59
2023-12-28T18:06:19.556Z,95680.16
2023-12-28T18:08:48.828Z,95674.03
2023-12-28T18:11:18.250Z,95681.44
2023-12-28T18:13:47.723Z,95680.28
2023-12-28T18:16:22.354Z,95674.50
2023-12-28T18:18:51.917Z,95674.50
2023-12-28T18:21:21.220Z,95667.72
2023-12-28T18:23:50.954Z,95671.16
2023-12-28T18:26:20.296Z,95671.16
2023-12-28T18:28:49.441Z,95672.94
2023-12-28T18:31:21.034Z,95664.34
2023-12-28T18:33:51.471Z,95667.78
2023-12-28T18:36:20.982Z,95667.94
2023-12-28T18:38:50.380Z,95674.91
2023-12-28T18:41:21.783Z,95681.63
2023-12-28T18:43:50.994Z,95676.47
2023-12-28T18:46:21.981Z,95684.59
2023-12-28T18:48:51.355Z,95695.50
2023-12-28T18:51:20.859Z,95689.00
2023-12-28T18:53:50.089Z,95694.13
2023-12-28T18:56:19.409Z,95699.63
2023-12-28T18:58:48.568Z,95695.75
2023-12-28T19:01:18.809Z,95685.13
2023-12-28T19:03:50.530Z,95689.75
2023-12-28T19:06:19.801Z,95704.44
2023-12-28T19:08:48.897Z,95701.94
2023-12-28T19:11:18.531Z,95696.78
2023-12-28T19:13:48.001Z,95695.91
2023-12-28T19:16:20.491Z,95687.78
2023-12-28T19:18:53.054Z,95695.69
2023-12-28T19:21:24.026Z,95687.47
2023-12-28T19:23:54.719Z,95683.84
2023-12-28T19:26:23.987Z,95683.81
2023-12-28T19:28:53.346Z,95683.47
2023-12-28T19:31:24.152Z,95686.03
2023-12-28T19:33:55.142Z,95676.53
2023-12-28T19:36:24.444Z,95674.34
2023-12-28T19:38:53.700Z,95671.00
2023-12-28T19:41:23.042Z,95672.28
2023-12-28T19:43:52.867Z,95676.22
2023-12-28T19:46:22.060Z,95675.66
2023-12-28T19:48:52.765Z,95672.13
2023-12-28T19:51:23.553Z,95665.84
2023-12-28T19:53:53.012Z,95657.72
2023-12-28T19:56:22.229Z,95664.38
2023-12-28T19:58:51.796Z,95668.69
2023-12-28T20:01:21.432Z,95674.97
2023-12-28T20:03:50.754Z,95678.81
2023-12-28T20:06:20.116Z,95666.63
2023-12-28T20:08:50.772Z,95676.28
2023-12-28T20:11:19.918Z,95674.09
2023-12-28T20:13:50.065Z,95669.97
2023-12-28T20:16:19.273Z,95665.53
2023-12-28T20:18:48.633Z,95675.19
2023-12-28T20:21:19.843Z,95669.97
2023-12-28T20:23:50.656Z,95675.34
2023-12-28T20:26:20.022Z,95676.28
2023-12-28T20:28:49.918Z,95679.06
2023-12-28T20:31:19.863Z,95674.47
2023-12-28T20:33:51.266Z,95669.09
2023-12-28T20:36:20.579Z,95662.56
2023-12-28T20:38:51.206Z,95662.38
2023-12-28T20:41:20.434Z,95665.88
2023-12-28T20:43:51.683Z,95663.34
2023-12-28T20:46:23.158Z,95653.22
2023-12-28T20:48:52.767Z,95664.31
2023-12-28T20:51:21.987Z,95664.03
2023-12-28T20:53:52.661Z,95659.81
2023-12-28T20:56:21.909Z,95651.97
2023-12-28T20:58:51.541Z,95650.50
2023-12-28T21:01:21.177Z,95648.72
2023-12-28T21:03:50.606Z,95649.88
2023-12-28T21:06:20.022Z,95649.38
2023-12-28T21:08:49.742Z,95644.22
2023-12-28T21:11:20.230Z,95636.19
2023-12-28T21:13:51.232Z,95645.66
2023-12-28T21:16:20.613Z,95647.47
2023-12-28T21:18:49.887Z,95643.72
2023-12-28T21:21:19.221Z,95636.06
2023-12-28T21:23:49.548Z,95635.56
2023-12-28T21:26:20.685Z,95628.38
2023-12-28T21:28:49.862Z,95635.13
2023-12-28T21:31:19.124Z,95642.00
2023-12-28T21:33:48.455Z,95639.06
2023-12-28T21:36:18.652Z,95633.50
2023-12-28T21:38:47.801Z,95627.63
2023-12-28T21:41:17.037Z,95625.16
2023-12-28T21:43:47.417Z,95632.22
2023-12-28T21:46:17.349Z,95627.19
2023-12-28T21:48:46.817Z,95626.84
2023-12-28T21:51:15.878Z,95631.72
2023-12-28T21:53:45.050Z,95624.03
2023-12-28T21:56:14.277Z,95614.88
2023-12-28T21:58:43.526Z,95614.50
2023-12-28T22:01:14.067Z,95613.03
2023-12-28T22:03:43.250Z,95620.66
2023-12-28T22:06:13.783Z,95615.09
2023-12-28T22:08:44.060Z,95617.00
2023-12-28T22:11:14.297Z,95617.16
2023-12-28T22:13:43.727Z,95614.16
2023-12-28T22:16:15.515Z,95618.41
2023-12-28T22:18:46.008Z,95619.72
2023-12-28T22:21:15.671Z,95619.22
2023-12-28T22:23:45.300Z,95620.38
2023-12-28T22:26:15.089Z,95617.75
2023-12-28T22:28:44.260Z,95625.13
2023-12-28T22:31:14.897Z,95612.03
2023-12-28T22:33:44.310Z,95613.88
2023-12-28T22:36:13.505Z,95611.06
2023-12-28T22:38:42.730Z,95609.59
2023-12-28T22:41:11.760Z,95602.72
2023-12-28T22:43:40.929Z,95605.19
2023-12-28T22:46:13.464Z,95608.91
2023-12-28T22:48:44.287Z,95604.84
2023-12-28T22:51:13.800Z,95606.13
2023-12-28T22:53:43.097Z,95611.38
2023-12-28T22:56:15.065Z,95599.28
2023-12-28T22:58:44.308Z,95600.09
2023-12-28T23:01:13.391Z,95596.19
2023-12-28T23:03:43.915Z,95596.00
2023-12-28T23:06:13.077Z,95598.72
2023-12-28T23:08:42.214Z,95597.47
2023-12-28T23:11:11.757Z,95591.38
2023-12-28T23:13:40.964Z,95599.28
2023-12-28T23:16:10.664Z,95589.63
2023-12-28T23:18:40.390Z,95583.19
2023-12-28T23:21:13.104Z,95581.41
2023-12-28T23:23:42.300Z,95586.81
2023-12-28T23:26:11.441Z,95579.00
2023-12-28T23:28:40.518Z,95578.03
2023-12-28T23:31:09.643Z,95578.38
2023-12-28T23:33:38.900Z,95572.28
2023-12-28T23:36:10.444Z,95580.75
2023-12-28T23:38:41.010Z,95581.88
2023-12-28T23:41:09.985Z,95578.94
2023-12-28T23:43:39.041Z,95566.84
2023-12-28T23:46:08.622Z,95564.06
2023-12-28T23:48:37.790Z,95570.44
2023-12-28T23:51:10.563Z,95564.69
2023-12-28T23:53:41.288Z,95556.53
2023-12-28T23:56:10.296Z,95555.88
2023-12-28T23:58:40.606Z,95563.56
